createdAt,value
2023-03-31T00:03:25.083Z,101154.09
2023-03-31T00:08:22.068Z,101154.59
2023-03-31T00:13:19.695Z,101145.28
2023-03-31T00:18:16.595Z,101147.72
2023-03-31T00:23:14.020Z,101126.09
2023-03-31T00:28:10.989Z,101113.13
2023-03-31T00:33:08.903Z,101126.38
2023-03-31T00:38:08.346Z,101088.22
2023-03-31T00:43:24.395Z,101110.72
2023-03-31T00:48:23.518Z,101122.22
2023-03-31T00:53:25.570Z,101117.22
2023-03-31T00:58:27.554Z,101103.22
2023-03-31T01:03:25.908Z,101082.91
2023-03-31T01:08:26.550Z,101096.09
2023-03-31T01:13:24.311Z,101075.13
2023-03-31T01:18:22.154Z,101058.13
2023-03-31T01:23:49.889Z,101060.97
2023-03-31T01:28:53.967Z,101053.44
2023-03-31T01:34:21.998Z,101033.06
2023-03-31T01:39:50.505Z,101031.56
2023-03-31T01:44:58.864Z,101045.91
2023-03-31T01:50:02.699Z,101053.44
2023-03-31T01:55:06.635Z,101026.00
2023-03-31T02:00:09.015Z,101037.31
2023-03-31T02:05:16.787Z,101042.94
2023-03-31T02:10:16.922Z,101038.22
2023-03-31T02:15:18.908Z,100977.59
2023-03-31T02:20:20.173Z,101019.09
2023-03-31T02:25:21.977Z,101008.56
2023-03-31T02:30:19.659Z,101026.25
2023-03-31T02:35:19.526Z,100960.13
2023-03-31T02:40:18.628Z,100996.66
2023-03-31T02:45:42.544Z,101000.69
2023-03-31T02:50:53.842Z,100970.72
2023-03-31T02:56:07.616Z,101013.84
2023-03-31T03:01:18.118Z,101022.53
2023-03-31T03:06:29.587Z,101019.88
2023-03-31T03:12:01.607Z,101013.56
2023-03-31T03:17:01.629Z,101032.44
2023-03-31T03:21:58.830Z,101019.97
2023-03-31T03:26:56.046Z,101036.94
2023-03-31T03:31:53.190Z,101004.50
2023-03-31T03:36:51.358Z,101018.97
2023-03-31T03:41:48.148Z,100984.97
2023-03-31T03:46:45.359Z,101045.44
2023-03-31T03:51:42.308Z,101046.94
2023-03-31T03:56:40.060Z,101046.72
2023-03-31T04:01:37.028Z,101053.78
2023-03-31T04:06:33.970Z,101062.28
2023-03-31T04:11:31.092Z,101067.06
2023-03-31T04:16:28.893Z,101054.53
2023-03-31T04:21:26.172Z,101036.38
2023-03-31T04:26:30.206Z,101045.97
2023-03-31T04:31:30.027Z,101055.19
2023-03-31T04:36:28.421Z,101063.00
2023-03-31T04:41:27.320Z,101011.78
2023-03-31T04:46:24.906Z,101044.00
2023-03-31T04:51:21.792Z,101033.66
2023-03-31T04:56:19.316Z,101050.53
2023-03-31T05:01:19.572Z,101053.03
2023-03-31T05:06:17.342Z,101030.78
2023-03-31T05:11:14.084Z,100944.44
2023-03-31T05:16:13.816Z,101036.28
2023-03-31T05:21:12.204Z,101035.31
2023-03-31T05:26:09.842Z,100963.06
2023-03-31T05:31:08.360Z,101009.69
2023-03-31T05:36:06.891Z,101021.38
2023-03-31T05:41:03.831Z,101011.69
2023-03-31T05:46:00.757Z,101029.22
2023-03-31T05:50:57.982Z,100981.19
2023-03-31T05:55:59.704Z,100972.44
2023-03-31T06:01:05.895Z,101010.59
2023-03-31T06:06:04.680Z,100995.22
2023-03-31T06:11:06.798Z,100995.94
2023-03-31T06:16:04.653Z,101002.91
2023-03-31T06:21:02.164Z,100960.13
2023-03-31T06:26:02.352Z,100959.56
2023-03-31T06:31:03.863Z,100948.31
2023-03-31T06:36:12.876Z,101000.13
2023-03-31T06:41:14.031Z,100963.28
2023-03-31T06:46:12.087Z,100925.28
2023-03-31T06:51:13.472Z,100894.66
2023-03-31T06:56:11.162Z,100898.91
2023-03-31T07:01:11.282Z,100923.34
2023-03-31T07:06:08.765Z,100866.25
2023-03-31T07:11:06.038Z,100958.03
2023-03-31T07:16:04.700Z,100930.38
2023-03-31T07:21:01.673Z,100917.94
2023-03-31T07:26:01.824Z,100875.75
2023-03-31T07:30:59.232Z,100897.81
2023-03-31T07:36:10.763Z,100928.81
2023-03-31T07:41:17.875Z,100865.31
2023-03-31T07:46:17.033Z,100877.56
2023-03-31T07:51:15.903Z,100900.19
2023-03-31T07:56:13.296Z,100816.13
2023-03-31T08:01:11.757Z,100848.56
2023-03-31T08:06:09.149Z,100854.88
2023-03-31T08:11:12.856Z,100819.53
2023-03-31T08:16:10.565Z,100806.50
2023-03-31T08:21:11.027Z,100756.78
2023-03-31T08:26:16.429Z,100758.22
2023-03-31T08:31:16.710Z,100805.66
2023-03-31T08:36:13.899Z,100746.91
2023-03-31T08:41:35.138Z,100733.28
2023-03-31T08:46:35.046Z,100764.69
2023-03-31T08:51:38.075Z,100763.75
2023-03-31T08:56:40.109Z,100715.56
2023-03-31T09:01:55.414Z,100713.66
2023-03-31T09:07:01.934Z,100724.22
2023-03-31T09:12:07.003Z,100696.16
2023-03-31T09:17:18.118Z,100719.00
2023-03-31T09:22:20.159Z,100682.69
2023-03-31T09:27:19.772Z,100685.50
2023-03-31T09:32:18.697Z,100663.72
2023-03-31T09:37:20.241Z,100688.84
2023-03-31T09:42:21.370Z,100644.66
2023-03-31T09:47:28.960Z,100639.78
2023-03-31T09:52:29.808Z,100664.78
2023-03-31T09:57:31.984Z,100643.41
2023-03-31T10:02:36.886Z,100671.84
2023-03-31T10:07:34.997Z,100662.03
2023-03-31T10:12:32.930Z,100653.53
2023-03-31T10:17:34.004Z,100646.44
2023-03-31T10:22:44.023Z,100597.63
2023-03-31T10:27:43.251Z,100567.28
2023-03-31T10:32:42.743Z,100645.31
2023-03-31T10:37:40.397Z,100610.38
2023-03-31T10:42:39.709Z,100562.66
2023-03-31T10:47:40.016Z,100587.41
2023-03-31T10:52:44.898Z,100524.69
2023-03-31T10:57:50.436Z,100584.56
2023-03-31T11:03:14.037Z,100493.00
2023-03-31T11:08:25.274Z,100553.81
2023-03-31T11:13:29.053Z,100530.38
2023-03-31T11:18:36.990Z,100561.03
2023-03-31T11:23:42.276Z,100548.69
2023-03-31T11:28:51.886Z,100534.09
2023-03-31T11:34:01.449Z,100494.69
2023-03-31T11:39:18.372Z,100537.91
2023-03-31T11:44:18.465Z,100512.66
2023-03-31T11:49:20.791Z,100527.81
2023-03-31T11:54:24.903Z,100533.00
2023-03-31T11:59:26.887Z,100498.41
2023-03-31T12:04:37.260Z,100502.34
2023-03-31T12:09:44.220Z,100511.69
2023-03-31T12:14:49.981Z,100489.41
2023-03-31T12:19:50.844Z,100516.09
2023-03-31T12:24:51.427Z,100502.88
2023-03-31T12:29:56.170Z,100490.81
2023-03-31T12:34:57.071Z,100492.16
2023-03-31T12:40:08.797Z,100488.63
2023-03-31T12:45:17.532Z,100468.84
2023-03-31T12:50:36.647Z,100431.66
2023-03-31T12:55:51.643Z,100444.06
2023-03-31T13:01:04.912Z,100366.09
2023-03-31T13:06:04.380Z,100448.19
2023-03-31T13:11:01.414Z,100408.44
2023-03-31T13:16:01.156Z,100383.09
2023-03-31T13:21:00.252Z,100401.03
2023-03-31T13:25:59.644Z,100365.78
2023-03-31T13:31:01.290Z,100426.78
2023-03-31T13:36:25.079Z,100381.47
2023-03-31T13:41:37.148Z,100383.25
2023-03-31T13:46:51.746Z,100407.66
2023-03-31T13:51:57.121Z,100318.53
2023-03-31T13:57:17.973Z,100406.75
2023-03-31T14:02:44.848Z,100395.53
2023-03-31T14:07:46.400Z,100388.38
2023-03-31T14:12:43.911Z,100379.31
2023-03-31T14:17:44.407Z,100373.28
2023-03-31T14:22:48.595Z,100351.31
2023-03-31T14:28:00.322Z,100382.41
2023-03-31T14:33:09.231Z,100369.16
2023-03-31T14:38:13.789Z,100376.34
2023-03-31T14:43:18.808Z,100350.84
2023-03-31T14:48:16.131Z,100372.63
2023-03-31T14:53:16.833Z,100368.94
2023-03-31T14:58:23.114Z,100293.00
2023-03-31T15:03:20.193Z,100295.84
2023-03-31T15:08:20.161Z,100329.69
2023-03-31T15:13:24.395Z,100327.50
2023-03-31T15:18:21.227Z,100308.00
2023-03-31T15:23:24.384Z,100353.31
2023-03-31T15:28:23.366Z,100306.16
2023-03-31T15:33:24.907Z,100368.84
2023-03-31T15:38:25.281Z,100370.53
2023-03-31T15:43:30.089Z,100317.50
2023-03-31T15:48:29.110Z,100375.53
2023-03-31T15:53:30.206Z,100370.00
2023-03-31T15:58:57.574Z,100377.97
2023-03-31T16:03:55.298Z,100359.56
2023-03-31T16:08:57.510Z,100364.16
2023-03-31T16:14:02.254Z,100381.41
2023-03-31T16:19:04.063Z,100385.59
2023-03-31T16:24:01.159Z,100351.72
2023-03-31T16:29:00.459Z,100383.00
2023-03-31T16:33:57.713Z,100391.06
2023-03-31T16:38:59.684Z,100392.91
2023-03-31T16:43:58.781Z,100368.59
2023-03-31T16:48:55.979Z,100388.06
2023-03-31T16:53:52.815Z,100397.31
2023-03-31T16:58:50.686Z,100408.34
2023-03-31T17:03:50.992Z,100374.66
2023-03-31T17:08:50.914Z,100408.38
2023-03-31T17:13:48.190Z,100354.41
2023-03-31T17:18:45.416Z,100402.94
2023-03-31T17:23:43.142Z,100345.75
2023-03-31T17:28:41.054Z,100374.72
2023-03-31T17:33:41.293Z,100392.13
2023-03-31T17:38:39.084Z,100418.00
2023-03-31T17:43:37.741Z,100408.78
2023-03-31T17:48:34.693Z,100389.66
2023-03-31T17:53:31.688Z,100427.66
2023-03-31T17:58:29.473Z,100422.47
2023-03-31T18:03:28.829Z,100378.81
2023-03-31T18:08:25.779Z,100313.78
2023-03-31T18:13:23.710Z,100425.78
2023-03-31T18:18:22.628Z,100399.19
2023-03-31T18:23:20.210Z,100399.81
2023-03-31T18:28:17.779Z,100415.72
2023-03-31T18:33:14.892Z,100420.03
2023-03-31T18:38:11.992Z,100405.81
2023-03-31T18:43:11.126Z,100402.44
2023-03-31T18:48:10.201Z,100411.84
2023-03-31T18:53:07.145Z,100294.34
2023-03-31T18:58:04.052Z,100407.88
2023-03-31T19:03:02.131Z,100347.69
2023-03-31T19:07:59.111Z,100393.25
2023-03-31T19:12:56.510Z,100405.63
2023-03-31T19:17:53.547Z,100403.47
2023-03-31T19:22:51.873Z,100400.81
2023-03-31T19:27:49.774Z,100395.50
2023-03-31T19:32:48.231Z,100284.00
2023-03-31T19:37:45.189Z,100374.38
2023-03-31T19:42:43.619Z,100398.47
2023-03-31T19:47:40.544Z,100365.78
2023-03-31T19:52:37.374Z,100363.91
2023-03-31T19:57:34.219Z,100283.03
2023-03-31T20:02:32.062Z,100312.19
2023-03-31T20:07:31.955Z,100334.84
2023-03-31T20:12:29.936Z,100308.94
2023-03-31T20:17:26.968Z,100307.34
2023-03-31T20:22:25.739Z,100242.94
2023-03-31T20:27:25.651Z,100336.94
2023-03-31T20:32:25.054Z,100345.28
2023-03-31T20:37:21.937Z,100317.50
2023-03-31T20:42:20.149Z,100339.31
2023-03-31T20:47:16.975Z,100297.69
2023-03-31T20:52:13.792Z,100317.44
2023-03-31T20:57:11.097Z,100348.50
2023-03-31T21:02:11.478Z,100358.56
2023-03-31T21:07:08.202Z,100309.44
2023-03-31T21:12:05.736Z,100370.13
2023-03-31T21:17:02.820Z,100358.22
2023-03-31T21:22:00.483Z,100218.09
2023-03-31T21:26:57.214Z,100345.13
2023-03-31T21:31:54.003Z,100319.00
2023-03-31T21:36:50.798Z,100348.88
2023-03-31T21:41:48.281Z,100341.41
2023-03-31T21:46:47.315Z,100309.59
2023-03-31T21:51:44.217Z,100322.72
2023-03-31T21:56:40.969Z,100285.16
2023-03-31T22:01:38.589Z,100303.94
2023-03-31T22:06:37.047Z,100321.16
2023-03-31T22:11:33.858Z,100258.75
2023-03-31T22:16:30.941Z,100308.25
2023-03-31T22:21:28.575Z,100293.91
2023-03-31T22:26:26.483Z,100262.97
2023-03-31T22:31:23.832Z,100310.06
2023-03-31T22:36:21.191Z,100288.63
2023-03-31T22:41:18.734Z,100299.94
2023-03-31T22:46:15.893Z,100312.78
2023-03-31T22:51:13.840Z,100295.25
2023-03-31T22:56:11.952Z,100306.13
2023-03-31T23:01:14.844Z,100258.03
2023-03-31T23:06:12.281Z,100250.94
2023-03-31T23:11:11.945Z,100234.06
2023-03-31T23:16:12.792Z,100285.44
2023-03-31T23:21:10.261Z,100278.69
2023-03-31T23:26:07.086Z,100295.50
2023-03-31T23:31:04.358Z,100281.56
2023-03-31T23:36:03.961Z,100266.16
2023-03-31T23:41:02.953Z,100246.28
2023-03-31T23:46:01.605Z,100249.88
2023-03-31T23:50:58.408Z,100232.50
2023-03-31T23:55:57.734Z,100195.28
